Time;durP1;ratioP1;P1;durP2;ratioP2;P2;SDS_P1;SDS_P2;PMS_P1;PMS_P2;Temp;Humidity;BMP_temperature;BMP_pressure;BME280_temperature;BME280_humidity;BME280_pressure;Samples;Min_cycle;Max_cycle;Signal;HPM_P1;HPM_P2
2022/11/24 00:00:44;;;;;;;7.65;1.13;;;;;;;13.78;100.00;100641.88;2087699;28;20073;-78
2022/11/24 00:02:08;;;;;;;5.72;0.98;;;;;;;13.77;100.00;100637.44;2093572;28;20044;-78
2022/11/24 00:03:29;;;;;;;10.95;1.40;;;;;;;13.74;100.00;100638.31;2082091;28;20052;-77
2022/11/24 00:04:52;;;;;;;6.53;1.10;;;;;;;13.73;100.00;100633.00;2077399;28;20072;-78
2022/11/24 00:06:16;;;;;;;9.75;2.17;;;;;;;13.71;100.00;100633.03;2085119;28;20053;-78
2022/11/24 00:07:39;;;;;;;6.70;0.93;;;;;;;13.70;100.00;100628.59;2091388;28;20400;-78
2022/11/24 00:09:02;;;;;;;5.95;1.65;;;;;;;13.68;100.00;100638.31;2087762;28;20073;-78
2022/11/24 00:10:23;;;;;;;9.90;1.67;;;;;;;13.66;100.00;100639.19;2093356;28;20087;-78
2022/11/24 00:11:46;;;;;;;11.77;2.67;;;;;;;13.62;100.00;100637.41;2100710;28;20591;-79
2022/11/24 00:13:07;;;;;;;7.10;2.85;;;;;;;13.59;100.00;100630.34;2079243;28;20061;-78
2022/11/24 00:14:30;;;;;;;10.27;2.65;;;;;;;13.56;100.00;100628.56;2090440;28;20114;-78
2022/11/24 00:15:51;;;;;;;7.18;1.58;;;;;;;13.57;100.00;100621.50;2089919;28;20049;-78
2022/11/24 00:17:16;;;;;;;5.68;1.40;;;;;;;13.55;100.00;100624.16;2101297;28;20472;-78
2022/11/24 00:18:38;;;;;;;9.88;1.98;;;;;;;13.56;100.00;100630.34;2096139;28;20044;-78
2022/11/24 00:20:00;;;;;;;7.70;1.70;;;;;;;13.54;100.00;100630.34;2102420;28;20056;-77
2022/11/24 00:21:24;;;;;;;8.20;2.85;;;;;;;13.54;100.00;100618.84;2089407;28;20513;-77
2022/11/24 00:22:45;;;;;;;6.25;1.50;;;;;;;13.51;100.00;100625.03;2092792;28;20052;-78
2022/11/24 00:24:09;;;;;;;10.13;2.00;;;;;;;13.49;100.00;100620.59;2086418;28;20541;-77
2022/11/24 00:25:32;;;;;;;5.63;1.42;;;;;;;13.47;100.00;100625.91;2092464;28;20131;-77
2022/11/24 00:26:55;;;;;;;8.25;1.48;;;;;;;13.43;100.00;100615.31;2086678;28;20056;-77
2022/11/24 00:28:16;;;;;;;4.13;0.77;;;;;;;13.43;100.00;100618.84;2094511;28;20055;-78
2022/11/24 00:29:39;;;;;;;4.43;0.95;;;;;;;13.41;100.00;100620.59;2094648;28;20492;-78
2022/11/24 00:31:01;;;;;;;5.90;1.00;;;;;;;13.40;100.00;100621.47;2094377;28;20132;-77
2022/11/24 00:32:25;;;;;;;7.32;1.42;;;;;;;13.41;100.00;100622.34;2096588;28;20382;-76
2022/11/24 00:33:48;;;;;;;7.65;1.02;;;;;;;13.42;100.00;100611.75;2080580;28;20049;-78
2022/11/24 00:35:10;;;;;;;5.57;1.00;;;;;;;13.42;100.00;100613.53;2091577;28;20075;-78
2022/11/24 00:36:34;;;;;;;7.10;1.67;;;;;;;13.42;100.00;100616.19;2080842;28;20693;-77
2022/11/24 00:37:56;;;;;;;7.10;1.73;;;;;;;13.35;100.00;100615.28;2084647;28;20044;-78
2022/11/24 00:39:18;;;;;;;4.55;1.20;;;;;;;13.28;100.00;100616.16;2086217;28;20061;-77
2022/11/24 00:40:40;;;;;;;5.03;1.77;;;;;;;13.19;100.00;100613.50;2078088;28;20123;-78
2022/11/24 00:42:02;;;;;;;3.50;2.10;;;;;;;13.10;100.00;100613.44;2083996;28;20052;-78
2022/11/24 00:43:24;;;;;;;6.55;2.00;;;;;;;13.01;100.00;100621.34;2086470;28;20548;-78
2022/11/24 00:44:46;;;;;;;9.45;2.60;;;;;;;12.94;100.00;100615.13;2089128;28;20041;-78
2022/11/24 00:46:08;;;;;;;7.15;2.60;;;;;;;12.88;100.00;100609.81;2086731;28;20052;-78
2022/11/24 00:47:32;;;;;;;6.63;1.50;;;;;;;12.83;100.00;100605.38;2079401;28;20218;-78
2022/11/24 00:48:55;;;;;;;5.35;2.10;;;;;;;12.77;100.00;100617.72;2092308;28;20536;-78
2022/11/24 00:50:17;;;;;;;6.28;1.90;;;;;;;12.77;100.00;100607.13;2092666;28;20045;-78
2022/11/24 00:51:40;;;;;;;4.80;1.30;;;;;;;12.83;100.00;100615.97;2100716;28;20051;-78
2022/11/24 00:53:02;;;;;;;10.55;3.78;;;;;;;12.89;100.00;100611.59;2102961;28;20725;-78
2022/11/24 00:54:24;;;;;;;5.38;1.60;;;;;;;12.94;100.00;100608.94;2094354;28;20136;-78
2022/11/24 00:55:48;;;;;;;8.63;1.70;;;;;;;12.99;100.00;100607.22;2100311;28;20142;-77
2022/11/24 00:57:10;;;;;;;6.10;0.75;;;;;;;13.02;100.00;100601.91;2105490;28;20048;-78
2022/11/24 00:58:32;;;;;;;3.95;0.75;;;;;;;13.05;100.00;100607.22;2094386;28;20135;-78
2022/11/24 00:59:55;;;;;;;4.30;0.70;;;;;;;13.06;100.00;100598.41;2099952;28;20519;-77
2022/11/24 01:01:19;;;;;;;3.70;0.40;;;;;;;13.09;100.00;100593.97;2095068;28;20072;-78
2022/11/24 01:02:42;;;;;;;6.30;1.15;;;;;;;13.12;100.00;100603.72;2094790;28;20524;-78
2022/11/24 01:04:05;;;;;;;6.07;0.50;;;;;;;13.14;100.00;100594.91;2094564;28;20052;-78
2022/11/24 01:05:27;;;;;;;2.30;0.70;;;;;;;13.18;100.00;100597.59;2094311;28;20043;-78
2022/11/24 01:06:50;;;;;;;4.15;0.52;;;;;;;13.19;100.00;100604.66;2088384;28;20152;-77
2022/11/24 01:08:12;;;;;;;4.32;0.40;;;;;;;13.21;100.00;100601.09;2098186;28;20036;-78
2022/11/24 01:09:34;;;;;;;2.47;0.40;;;;;;;13.24;100.00;100592.28;2088637;28;20072;-77
2022/11/24 01:11:10;;;;;;;2.90;0.70;;;;;;;13.28;100.00;100586.09;2093614;28;20677;-78
2022/11/24 01:12:31;;;;;;;3.05;0.50;;;;;;;13.29;100.00;100580.81;2096043;28;20055;-78
2022/11/24 01:13:56;;;;;;;5.32;0.50;;;;;;;13.31;100.00;100576.41;2085912;28;20477;-77
2022/11/24 01:15:18;;;;;;;4.50;0.50;;;;;;;13.34;100.00;100579.03;2092507;28;20059;-77
2022/11/24 01:16:40;;;;;;;5.07;0.60;;;;;;;13.37;100.00;100584.38;2080256;28;20040;-77
2022/11/24 01:18:05;;;;;;;4.65;0.80;;;;;;;13.37;100.00;100579.06;2091843;28;20151;-77
2022/11/24 01:19:26;;;;;;;2.83;0.32;;;;;;;13.35;100.00;100579.94;2085555;28;20044;-78
2022/11/24 01:20:49;;;;;;;5.03;0.77;;;;;;;13.31;100.00;100573.75;2091188;28;20053;-77
2022/11/24 01:22:10;;;;;;;2.15;0.43;;;;;;;13.30;100.00;100576.41;2088243;28;20045;-77
2022/11/24 01:23:33;;;;;;;2.20;0.47;;;;;;;13.26;100.00;100572.84;2086446;28;20075;-77
2022/11/24 01:24:54;;;;;;;4.68;0.52;;;;;;;13.25;100.00;100564.91;2099466;28;20051;-77
2022/11/24 01:26:19;;;;;;;3.05;0.45;;;;;;;13.22;100.00;100559.59;2089091;28;20051;-77
2022/11/24 01:27:41;;;;;;;2.78;0.30;;;;;;;13.19;100.00;100560.47;2092098;28;20558;-77
2022/11/24 01:29:03;;;;;;;7.07;1.50;;;;;;;13.16;100.00;100564.00;2093972;28;20040;-78
2022/11/24 01:30:26;;;;;;;4.05;0.40;;;;;;;13.15;100.00;100566.63;2093960;28;20048;-77
2022/11/24 01:31:47;;;;;;;4.55;0.50;;;;;;;13.14;100.00;100571.06;2094202;28;20049;-77
2022/11/24 01:33:11;;;;;;;2.72;0.40;;;;;;;13.13;100.00;100558.69;2085136;28;20045;-77
2022/11/24 01:34:34;;;;;;;3.17;0.55;;;;;;;13.11;100.00;100557.78;2097341;28;20509;-77
2022/11/24 01:35:56;;;;;;;5.95;0.75;;;;;;;13.09;100.00;100546.28;2088950;28;20048;-77
2022/11/24 01:37:19;;;;;;;1.55;0.40;;;;;;;13.08;100.00;100554.22;2085580;28;20560;-77
2022/11/24 01:38:40;;;;;;;5.95;0.77;;;;;;;13.06;100.00;100554.22;2094159;28;20047;-77
2022/11/24 01:40:03;;;;;;;3.03;0.50;;;;;;;13.04;100.00;100547.16;2088566;28;20052;-77
2022/11/24 01:41:26;;;;;;;2.47;0.35;;;;;;;13.03;100.00;100556.88;2093646;28;20040;-77
2022/11/24 01:42:50;;;;;;;3.90;0.40;;;;;;;13.02;100.00;100547.16;2085943;28;20064;-77
2022/11/24 01:44:27;;;;;;;2.83;0.55;;;;;;;13.01;100.00;100555.97;2093701;28;20225;-77
2022/11/24 01:45:49;;;;;;;3.05;0.60;;;;;;;13.01;100.00;100545.38;2097029;28;20532;-77
2022/11/24 01:47:30;;;;;;;8.85;0.90;;;;;;;13.01;100.00;100552.44;2096626;28;20058;-76
2022/11/24 01:49:02;;;;;;;4.90;0.50;;;;;;;13.02;100.00;100552.44;2105171;28;20532;-78
2022/11/24 01:50:23;;;;;;;4.05;0.55;;;;;;;13.02;100.00;100551.56;2088151;28;20564;-77
2022/11/24 01:51:50;;;;;;;5.15;0.73;;;;;;;13.03;100.00;100553.34;2085353;28;20071;-76
2022/11/24 01:53:13;;;;;;;3.15;0.57;;;;;;;13.02;100.00;100543.63;2078148;28;20038;-77
2022/11/24 01:54:39;;;;;;;6.38;0.63;;;;;;;13.00;100.00;100551.56;2091472;28;20055;-78
2022/11/24 01:56:01;;;;;;;4.07;0.70;;;;;;;12.99;100.00;100551.56;2085663;28;20057;-77
2022/11/24 01:57:25;;;;;;;;;;;;;;;12.93;100.00;100555.06;2087189;28;20223;-77
2022/11/24 01:58:50;;;;;;;3.72;0.75;;;;;;;12.94;100.00;100542.72;2082946;28;19921;-77
2022/11/24 02:00:14;;;;;;;3.00;0.60;;;;;;;12.95;100.00;100541.84;2094405;28;20059;-77
2022/11/24 02:01:36;;;;;;;2.75;0.60;;;;;;;12.96;100.00;100541.84;2094079;28;20056;-77
2022/11/24 02:02:58;;;;;;;4.80;0.93;;;;;;;12.96;100.00;100544.50;2093928;28;20060;-78
2022/11/24 02:04:28;;;;;;;3.85;0.55;;;;;;;12.95;100.00;100539.19;2085243;28;20060;-78
2022/11/24 02:06:00;;;;;;;7.13;0.88;;;;;;;12.95;100.00;100536.53;2086560;28;20048;-77
2022/11/24 02:07:22;;;;;;;7.05;0.73;;;;;;;12.94;100.00;100543.59;2086428;28;20044;-77
2022/11/24 02:08:50;;;;;;;8.63;0.90;;;;;;;12.94;100.00;100533.00;2085515;28;20099;-77
2022/11/24 02:10:14;;;;;;;6.10;0.60;;;;;;;12.93;100.00;100522.41;2078279;28;20533;-77
2022/11/24 02:11:38;;;;;;;3.60;0.60;;;;;;;12.95;100.00;100532.13;2085738;28;20592;-77
2022/11/24 02:13:01;;;;;;;3.42;0.47;;;;;;;12.95;100.00;100531.22;2093915;28;20045;-78
2022/11/24 02:14:25;;;;;;;3.80;0.57;;;;;;;12.97;100.00;100534.78;2088150;28;20061;-77
2022/11/24 02:15:47;;;;;;;3.47;0.68;;;;;;;12.96;100.00;100523.28;2089645;28;20033;-77
2022/11/24 02:17:09;;;;;;;;;;;;;;;12.93;100.00;100525.06;2085585;28;20219;-78
2022/11/24 02:18:32;;;;;;;2.75;0.50;;;;;;;12.93;100.00;100517.13;2083178;28;19924;-77
2022/11/24 02:19:58;;;;;;;4.43;0.50;;;;;;;12.93;100.00;100517.97;2093636;28;20083;-78
2022/11/24 02:21:20;;;;;;;6.90;1.08;;;;;;;12.94;100.00;100510.91;2095403;28;20048;-78
2022/11/24 02:22:51;;;;;;;6.38;0.82;;;;;;;12.94;100.00;100506.50;2093880;28;20475;-78
2022/11/24 02:24:22;;;;;;;3.53;0.65;;;;;;;12.95;100.00;100499.44;2101229;28;20046;-77
2022/11/24 02:25:52;;;;;;;6.72;0.80;;;;;;;12.95;100.00;100508.28;2079947;28;20424;-77
2022/11/24 02:27:17;;;;;;;4.32;0.50;;;;;;;12.95;100.00;100517.97;2100879;28;20070;-77
2022/11/24 02:28:38;;;;;;;3.60;0.50;;;;;;;12.94;100.00;100519.75;2088090;28;20458;-77
2022/11/24 02:30:01;;;;;;;5.75;0.57;;;;;;;12.93;100.00;100517.97;2093791;28;20542;-78
2022/11/24 02:31:22;;;;;;;5.70;0.90;;;;;;;12.94;100.00;100510.91;2092393;28;20535;-78
2022/11/24 02:32:45;;;;;;;3.08;0.60;;;;;;;12.95;100.00;100515.34;2091631;28;20048;-78
2022/11/24 02:34:06;;;;;;;5.45;1.02;;;;;;;12.94;100.00;100513.56;2093292;28;20230;-77
2022/11/24 02:35:29;;;;;;;2.28;0.25;;;;;;;12.92;100.00;100516.22;2083888;28;20055;-77
2022/11/24 02:36:52;;;;;;;6.35;0.77;;;;;;;12.89;100.00;100518.84;2085346;28;20056;-78
2022/11/24 02:38:13;;;;;;;3.28;0.50;;;;;;;12.87;100.00;100525.03;2083016;28;20053;-78
2022/11/24 02:39:36;;;;;;;;;;;;;;;12.82;100.00;100524.13;2089996;28;20044;-77
2022/11/24 02:40:59;;;;;;;5.07;0.98;;;;;;;12.82;100.00;100525.03;2085168;28;19921;-77
2022/11/24 02:42:25;;;;;;;3.75;0.63;;;;;;;12.84;100.00;100527.69;2077309;28;20575;-77
2022/11/24 02:43:52;;;;;;;7.00;0.77;;;;;;;12.82;100.00;100527.66;2097791;28;20051;-77
2022/11/24 02:45:15;;;;;;;6.38;1.00;;;;;;;12.83;100.00;100528.56;2098340;28;20182;-78
2022/11/24 02:46:38;;;;;;;4.20;0.50;;;;;;;12.82;100.00;100524.13;2093910;28;20047;-77
2022/11/24 02:47:59;;;;;;;5.90;1.85;;;;;;;12.81;100.00;100525.00;2101725;28;20056;-76
2022/11/24 02:49:23;;;;;;;4.43;0.60;;;;;;;12.78;100.00;100524.16;2096117;28;20103;-77
2022/11/24 02:50:44;;;;;;;4.88;1.05;;;;;;;12.77;100.00;100524.13;2101741;28;20235;-77
2022/11/24 02:52:07;;;;;;;10.77;5.50;;;;;;;12.74;100.00;100529.41;2096223;28;20056;-77
2022/11/24 02:53:30;;;;;;;8.73;4.30;;;;;;;12.70;100.00;100533.81;2085507;28;20144;-77
2022/11/24 02:54:51;;;;;;;6.13;3.22;;;;;;;12.65;100.00;100527.63;2098547;28;20035;-77
2022/11/24 02:56:14;;;;;;;8.73;2.85;;;;;;;12.56;100.00;100532.00;2096147;28;20496;-77
2022/11/24 02:57:38;;;;;;;7.55;1.50;;;;;;;12.48;100.00;100529.31;2084874;28;20476;-77
2022/11/24 02:58:59;;;;;;;6.45;1.95;;;;;;;12.44;100.00;100524.00;2082723;28;20078;-77
2022/11/24 03:00:22;;;;;;;8.05;2.08;;;;;;;12.44;100.00;100522.25;2090600;28;20040;-77
2022/11/24 03:01:44;;;;;;;6.13;1.40;;;;;;;12.45;100.00;100516.09;2087445;28;20139;-77
2022/11/24 03:03:06;;;;;;;5.03;1.33;;;;;;;12.50;100.00;100521.38;2084991;28;20048;-76
2022/11/24 03:04:29;;;;;;;5.60;1.40;;;;;;;12.48;100.00;100513.44;2093179;28;20670;-77
2022/11/24 03:05:50;;;;;;;5.13;1.05;;;;;;;12.45;100.00;100500.19;2088029;28;20033;-77
2022/11/24 03:07:13;;;;;;;7.70;0.82;;;;;;;12.46;100.00;100511.69;2085063;28;20044;-78
2022/11/24 03:08:36;;;;;;;8.27;1.38;;;;;;;12.47;100.00;100511.66;2089151;28;20045;-77
2022/11/24 03:09:58;;;;;;;5.60;0.82;;;;;;;12.50;100.00;100505.50;2096416;28;20095;-77
2022/11/24 03:11:21;;;;;;;3.78;0.88;;;;;;;12.53;100.00;100508.19;2087536;28;20045;-77
2022/11/24 03:12:44;;;;;;;7.40;1.00;;;;;;;12.55;100.00;100509.94;2085248;28;20103;-77
2022/11/24 03:14:06;;;;;;;5.38;0.95;;;;;;;12.57;100.00;100502.88;2087225;28;20048;-76
2022/11/24 03:15:29;;;;;;;6.47;1.20;;;;;;;12.59;100.00;100494.97;2087690;28;20049;-77
2022/11/24 03:16:52;;;;;;;6.07;0.80;;;;;;;12.63;100.00;100508.19;2095921;28;20040;-77
2022/11/24 03:18:13;;;;;;;5.00;1.00;;;;;;;12.66;100.00;100517.94;2087639;28;20144;-77
2022/11/24 03:19:36;;;;;;;5.57;0.93;;;;;;;12.67;100.00;100515.25;2084922;28;20053;-77
2022/11/24 03:21:00;;;;;;;3.90;0.60;;;;;;;12.71;100.00;100526.75;2093211;28;20086;-77
2022/11/24 03:22:21;;;;;;;8.90;1.10;;;;;;;12.74;100.00;100525.00;2082377;28;20044;-77
2022/11/24 03:23:44;;;;;;;4.40;0.82;;;;;;;12.75;100.00;100521.47;2090048;28;20068;-77
2022/11/24 03:25:06;;;;;;;6.63;1.30;;;;;;;12.78;100.00;100529.44;2100045;28;20068;-77
2022/11/24 03:26:28;;;;;;;;;;;;;;;12.74;100.00;100525.00;2079922;28;20077;-77
2022/11/24 03:27:52;;;;;;;5.35;1.08;;;;;;;12.75;100.00;100525.88;2090537;28;19921;-76
2022/11/24 03:29:14;;;;;;;3.72;0.60;;;;;;;12.78;100.00;100532.09;2087268;28;20088;-76
2022/11/24 03:30:36;;;;;;;4.43;0.82;;;;;;;12.82;100.00;100529.44;2086981;28;20033;-77
2022/11/24 03:31:58;;;;;;;6.68;0.73;;;;;;;12.84;100.00;100533.88;2092897;28;20056;-76
2022/11/24 03:33:20;;;;;;;8.18;0.95;;;;;;;12.86;100.00;100528.59;2084826;28;20041;-76
2022/11/24 03:34:42;;;;;;;10.07;1.63;;;;;;;12.89;100.00;100525.91;2090294;28;20044;-78
2022/11/24 03:36:06;;;;;;;5.50;0.82;;;;;;;12.90;100.00;100519.75;2093322;28;20168;-77
2022/11/24 03:37:28;;;;;;;5.28;0.90;;;;;;;12.90;100.00;100525.94;2096199;28;20044;-78
2022/11/24 03:38:51;;;;;;;8.38;0.82;;;;;;;12.91;100.00;100524.16;2087054;28;20778;-78
2022/11/24 03:40:12;;;;;;;5.50;1.25;;;;;;;12.92;100.00;100526.84;2094222;28;20152;-77
2022/11/24 03:41:35;;;;;;;4.38;0.90;;;;;;;12.90;100.00;100525.94;2096148;28;20044;-78
2022/11/24 03:42:58;;;;;;;5.63;0.95;;;;;;;12.91;100.00;100527.72;2092734;28;20440;-77
2022/11/24 03:44:20;;;;;;;3.88;0.80;;;;;;;12.90;100.00;100525.03;2079739;28;20096;-78
2022/11/24 03:45:46;;;;;;;5.95;0.98;;;;;;;12.89;100.00;100524.16;2086552;28;20040;-78
2022/11/24 03:47:09;;;;;;;8.45;0.93;;;;;;;12.88;100.00;100522.38;2090839;28;20071;-77
2022/11/24 03:48:32;;;;;;;6.03;1.15;;;;;;;12.87;100.00;100523.25;2093248;28;20063;-77
2022/11/24 03:49:53;;;;;;;8.48;1.40;;;;;;;12.87;100.00;100525.03;2093445;28;20041;-77
2022/11/24 03:51:16;;;;;;;6.20;0.93;;;;;;;12.84;100.00;100527.69;2093272;28;20493;-77
2022/11/24 03:52:38;;;;;;;7.60;1.20;;;;;;;12.83;100.00;100526.78;2083058;28;20037;-77
2022/11/24 03:54:01;;;;;;;4.93;0.85;;;;;;;12.82;100.00;100529.44;2091649;28;20198;-77
2022/11/24 03:55:22;;;;;;;5.20;0.80;;;;;;;12.81;100.00;100531.19;2094602;28;20048;-77
2022/11/24 03:56:45;;;;;;;5.55;0.90;;;;;;;12.79;100.00;100525.03;2086712;28;20399;-77
2022/11/24 03:58:08;;;;;;;6.72;0.80;;;;;;;12.80;100.00;100525.91;2084031;28;20120;-77
2022/11/24 03:59:30;;;;;;;5.45;1.27;;;;;;;12.78;100.00;100525.91;2092513;28;20045;-77
2022/11/24 04:00:52;;;;;;;5.75;1.20;;;;;;;12.78;100.00;100526.78;2092435;28;20036;-78
2022/11/24 04:02:15;;;;;;;9.40;0.80;;;;;;;12.76;100.00;100523.25;2102364;28;20619;-77
2022/11/24 04:03:37;;;;;;;5.20;1.10;;;;;;;12.74;100.00;100527.66;2092803;28;20053;-77
2022/11/24 04:04:59;;;;;;;7.55;1.10;;;;;;;12.73;100.00;100525.88;2094657;28;20052;-77
2022/11/24 04:06:22;;;;;;;7.32;0.70;;;;;;;12.72;100.00;100524.13;2097631;28;20048;-77
2022/11/24 04:07:43;;;;;;;10.23;1.08;;;;;;;12.72;100.00;100526.78;2097315;28;20079;-77
2022/11/24 04:09:06;;;;;;;7.40;1.80;;;;;;;12.72;100.00;100523.25;2094336;28;20143;-77
2022/11/24 04:10:28;;;;;;;5.53;0.75;;;;;;;12.73;100.00;100530.31;2086204;28;20144;-77
2022/11/24 04:13:32;;;;;;;10.02;3.17;;;;;;;12.70;100.00;100531.19;2096990;28;20555;-77
2022/11/24 04:14:53;;;;;;;7.10;1.50;;;;;;;12.69;100.00;100531.16;2091876;28;20052;-76
2022/11/24 04:16:15;;;;;;;9.98;1.73;;;;;;;12.68;100.00;100524.09;2075613;28;20132;-77
2022/11/24 04:17:37;;;;;;;7.57;1.30;;;;;;;12.69;100.00;100526.75;2089738;28;20048;-77
2022/11/24 04:18:59;;;;;;;6.68;1.10;;;;;;;12.70;100.00;100538.22;2088721;28;20180;-77
2022/11/24 04:20:21;;;;;;;6.70;1.20;;;;;;;12.68;100.00;100532.94;2083672;28;20238;-77
2022/11/24 04:21:43;;;;;;;8.45;1.70;;;;;;;12.68;100.00;100546.16;2092061;28;20048;-77
2022/11/24 04:23:06;;;;;;;10.43;1.65;;;;;;;12.68;100.00;100543.53;2089387;28;20494;-77
2022/11/24 04:24:28;;;;;;;9.65;2.30;;;;;;;12.69;100.00;100547.06;2097778;28;20389;-77
2022/11/24 04:25:51;;;;;;;6.60;1.40;;;;;;;12.69;100.00;100544.41;2080626;28;20046;-77
2022/11/24 04:27:14;;;;;;;8.43;1.40;;;;;;;12.68;100.00;100546.16;2067559;28;20054;-76
2022/11/24 04:28:38;;;;;;;4.55;0.95;;;;;;;12.69;100.00;100544.41;2090108;28;20048;-76
2022/11/24 04:30:00;;;;;;;5.20;0.90;;;;;;;12.69;100.00;100540.00;2086379;28;20059;-76
2022/11/24 04:31:22;;;;;;;11.18;0.90;;;;;;;12.68;100.00;100548.81;2093845;28;20115;-77
2022/11/24 04:32:44;;;;;;;7.30;1.27;;;;;;;12.69;100.00;100550.59;2094558;28;20052;-77
2022/11/24 04:34:06;;;;;;;8.38;1.48;;;;;;;12.67;100.00;100547.03;2091911;28;20049;-78
2022/11/24 04:35:28;;;;;;;6.10;1.10;;;;;;;12.66;100.00;100545.31;2104246;28;20641;-77
2022/11/24 04:36:51;;;;;;;4.82;1.05;;;;;;;12.68;100.00;100553.22;2103397;28;20035;-77
2022/11/24 04:38:14;;;;;;;6.40;1.08;;;;;;;12.68;100.00;100542.63;2094857;28;20045;-77
2022/11/24 04:39:36;;;;;;;7.85;0.98;;;;;;;12.68;100.00;100547.94;2091823;28;20087;-76
2022/11/24 04:41:02;;;;;;;5.72;1.10;;;;;;;12.68;100.00;100548.81;2100113;28;20051;-77
2022/11/24 04:42:23;;;;;;;2.70;0.70;;;;;;;12.68;100.00;100548.81;2103654;28;20048;-77
2022/11/24 04:43:50;;;;;;;5.63;0.88;;;;;;;12.69;100.00;100549.69;2103162;28;20048;-76
2022/11/24 04:45:12;;;;;;;7.32;1.00;;;;;;;12.68;100.00;100548.81;2103355;28;20097;-77
2022/11/24 04:46:34;;;;;;;3.40;0.80;;;;;;;12.67;100.00;100541.75;2095041;28;20048;-77
2022/11/24 04:47:56;;;;;;;4.78;0.90;;;;;;;12.67;100.00;100549.69;2093794;28;20037;-77
2022/11/24 04:49:19;;;;;;;5.68;0.93;;;;;;;12.69;100.00;100555.00;2088864;28;20075;-77
2022/11/24 04:50:42;;;;;;;5.70;1.42;;;;;;;12.66;100.00;100550.59;2086781;28;20049;-77
2022/11/24 04:52:03;;;;;;;4.90;0.80;;;;;;;12.66;100.00;100547.94;2078278;28;20049;-78
2022/11/24 04:53:25;;;;;;;9.07;1.45;;;;;;;12.66;100.00;100547.06;2075240;28;20038;-78
2022/11/24 04:54:47;;;;;;;4.97;1.17;;;;;;;12.66;100.00;100545.31;2092201;28;20049;-77
2022/11/24 04:56:10;;;;;;;6.28;0.90;;;;;;;12.66;100.00;100540.00;2080593;28;20057;-77
2022/11/24 04:57:31;;;;;;;5.72;1.10;;;;;;;12.67;100.00;100547.03;2084145;28;20056;-77
2022/11/24 04:58:55;;;;;;;8.07;1.38;;;;;;;12.67;100.00;100541.75;2094567;28;20166;-76
2022/11/24 05:00:19;;;;;;;8.48;1.30;;;;;;;12.67;100.00;100547.03;2091707;28;20049;-77
2022/11/24 05:01:40;;;;;;;7.78;1.20;;;;;;;12.68;100.00;100547.94;2094808;28;20431;-77
2022/11/24 05:03:03;;;;;;;8.32;1.40;;;;;;;12.68;100.00;100548.81;2092244;28;20057;-77
2022/11/24 05:04:24;;;;;;;7.55;1.30;;;;;;;12.68;100.00;100543.53;2091815;28;20077;-77
2022/11/24 05:05:47;;;;;;;4.25;0.82;;;;;;;12.69;100.00;100549.69;2094074;28;20101;-77
2022/11/24 05:07:11;;;;;;;10.80;4.65;;;;;;;12.69;100.00;100547.94;2097383;28;20102;-77
2022/11/24 05:08:32;;;;;;;31.02;22.05;;;;;;;12.68;100.00;100546.16;2088545;28;20049;-77
2022/11/24 05:11:35;;;;;;;23.27;15.75;;;;;;;12.71;100.00;100546.19;2092437;28;20044;-77
2022/11/24 05:12:58;;;;;;;22.98;11.43;;;;;;;12.73;100.00;100547.06;2086442;28;20095;-77
2022/11/24 05:14:22;;;;;;;17.25;11.40;;;;;;;12.76;100.00;100547.09;2082153;28;20054;-77
2022/11/24 05:15:43;;;;;;;14.43;8.60;;;;;;;12.76;100.00;100549.72;2075749;28;20065;-77
2022/11/24 05:17:06;;;;;;;16.48;8.15;;;;;;;12.78;100.00;100547.97;2083545;28;20053;-77
2022/11/24 05:18:28;;;;;;;18.45;10.52;;;;;;;12.78;100.00;100547.97;2083319;28;20037;-76
2022/11/24 05:19:49;;;;;;;13.50;8.45;;;;;;;12.81;100.00;100548.84;2089962;28;20045;-77
2022/11/24 05:21:12;;;;;;;21.25;12.00;;;;;;;12.80;100.00;100550.63;2091823;28;20076;-77
2022/11/24 05:22:33;;;;;;;24.80;15.93;;;;;;;12.82;100.00;100554.16;2084667;28;20831;-76
2022/11/24 05:23:56;;;;;;;22.42;13.63;;;;;;;12.83;100.00;100552.41;2085690;28;20049;-77
2022/11/24 05:25:17;;;;;;;19.38;13.10;;;;;;;12.86;100.00;100555.06;2097055;28;20036;-77
2022/11/24 05:26:39;;;;;;;16.40;8.20;;;;;;;12.88;100.00;100553.28;2090683;28;20105;-77
2022/11/24 05:28:02;;;;;;;10.55;4.72;;;;;;;12.89;100.00;100557.72;2094784;28;20143;-77
2022/11/24 05:29:26;;;;;;;19.13;11.68;;;;;;;12.93;100.00;100559.50;2085548;28;20170;-76
2022/11/24 05:30:48;;;;;;;32.85;23.92;;;;;;;12.93;100.00;100563.00;2091788;28;20551;-77
2022/11/24 05:32:09;;;;;;;26.05;20.38;;;;;;;12.94;100.00;100555.94;2092068;28;20044;-77
2022/11/24 05:33:33;;;;;;;21.33;14.13;;;;;;;12.93;100.00;100560.38;2094070;28;20503;-77
2022/11/24 05:34:55;;;;;;;36.85;27.45;;;;;;;12.96;100.00;100567.44;2094012;28;20521;-77
2022/11/24 05:37:54;;;;;;;46.67;36.47;;;;;;;12.97;100.00;100569.22;2087302;28;20041;-76
2022/11/24 05:39:15;;;;;;;84.50;62.47;;;;;;;12.97;100.00;100567.47;2082552;28;20467;-77
2022/11/24 05:40:38;;;;;;;100.65;77.30;;;;;;;12.99;100.00;100572.78;2082248;28;20664;-76
2022/11/24 05:42:39;;;;;;;82.97;63.15;;;;;;;13.00;100.00;100566.56;2090212;28;20056;-77
2022/11/24 05:43:45;;;;;;;57.47;45.55;;;;;;;13.00;100.00;100578.06;2096890;28;20059;-77
2022/11/24 05:45:10;;;;;;;48.70;39.33;;;;;;;13.02;100.00;100575.41;2093075;28;20044;-77
2022/11/24 05:46:35;;;;;;;42.22;33.47;;;;;;;13.02;100.00;100575.41;2096381;28;20555;-77
2022/11/24 05:48:04;;;;;;;70.90;60.97;;;;;;;13.02;100.00;100571.00;2092459;28;20075;-76
2022/11/24 05:49:27;;;;;;;72.38;64.75;;;;;;;13.04;100.00;100576.31;2093438;28;20052;-77
2022/11/24 05:50:54;;;;;;;88.85;79.10;;;;;;;13.05;100.00;100571.03;2095381;28;20052;-76
2022/11/24 05:52:17;;;;;;;102.90;92.13;;;;;;;13.08;100.00;100572.78;2076918;28;20057;-76
2022/11/24 05:53:39;;;;;;;90.40;81.15;;;;;;;13.15;100.00;100571.94;2085743;28;20335;-77
2022/11/24 05:55:02;;;;;;;96.80;86.70;;;;;;;13.26;100.00;100580.78;2088312;28;20142;-76
2022/11/24 05:56:24;;;;;;;96.63;86.95;;;;;;;13.40;100.00;100576.41;2091606;28;20040;-76
2022/11/24 05:57:47;;;;;;;101.85;91.63;;;;;;;13.56;100.00;100580.84;2086107;28;20517;-76
2022/11/24 05:59:11;;;;;;;111.50;100.70;;;;;;;13.73;100.00;100586.13;2089916;28;20072;-76
2022/11/24 06:00:36;;;;;;;130.30;118.00;;;;;;;13.88;100.00;100583.47;2084530;28;20051;-76
2022/11/24 06:01:57;;;;;;;171.18;154.65;;;;;;;14.00;100.00;100582.56;2092192;28;20068;-77
2022/11/24 06:03:20;;;;;;;200.93;181.63;;;;;;;14.14;100.00;100591.41;2096736;28;20076;-78
2022/11/24 06:04:41;;;;;;;219.18;197.00;;;;;;;14.27;100.00;100590.50;2093404;28;20037;-77
2022/11/24 06:06:03;;;;;;;175.82;158.23;;;;;;;14.39;100.00;100586.06;2090021;28;20069;-77
2022/11/24 06:07:25;;;;;;;177.88;160.18;;;;;;;14.51;100.00;100588.69;2096407;28;20127;-77
2022/11/24 06:08:47;;;;;;;136.93;122.30;;;;;;;14.60;100.00;100578.03;2085705;28;20048;-78
2022/11/24 06:10:10;;;;;;;96.18;86.13;;;;;;;14.70;100.00;100587.75;2099864;28;20063;-78
2022/11/24 06:11:32;;;;;;;87.22;78.68;;;;;;;14.80;100.00;100591.25;2096069;28;20044;-77
2022/11/24 06:12:55;;;;;;;58.10;52.10;;;;;;;14.90;100.00;100585.88;2085758;28;20532;-77
2022/11/24 06:14:18;;;;;;;47.97;41.83;;;;;;;14.99;100.00;100592.91;2083529;28;20055;-77
2022/11/24 06:15:42;;;;;;;41.33;36.45;;;;;;;15.07;100.00;100589.34;2082878;28;20507;-77
2022/11/24 06:17:04;;;;;;;41.65;37.25;;;;;;;15.16;100.00;100597.25;2089252;28;20150;-76
2022/11/24 06:18:26;;;;;;;39.40;33.55;;;;;;;15.26;100.00;100587.44;2093655;28;20056;-76
2022/11/24 06:19:49;;;;;;;19.00;15.38;;;;;;;15.36;100.00;100586.47;2096473;28;20048;-76
2022/11/24 06:21:11;;;;;;;21.45;17.30;;;;;;;15.46;100.00;100582.88;2093848;28;20101;-75
2022/11/24 06:22:33;;;;;;;12.10;8.02;;;;;;;15.53;100.00;100579.31;2085056;28;20072;-77
2022/11/24 06:23:55;;;;;;;11.38;5.70;;;;;;;15.60;100.00;100577.47;2082845;28;20044;-75
2022/11/24 06:25:17;;;;;;;7.78;4.28;;;;;;;15.67;100.00;100576.53;2077385;28;20456;-76